• Join FlightAware (Why Join?)
  • Login
  • US Flag 
10:30PM EST


 

Airport Tracker/Info


-or-


 

Live Flight TrackerFlight Track Log ✈ SWA1017 ✈ 23-May-2013 ✈ KHRL - KAUS

Flight Track Log - Related Links

Times and Time Zones

All times are in EDT time to prevent confusion due to time zone crossing. See the SWA1017 flight status page for this flight to view local times or setup timezone preferences in your user account.

Time Position Orientation Groundspeed Altitude Reporting Facility
EDT Latitude Longitude Course Direction KTS MPH feet Rate Location/Type
02:56PM 26.2153 -97.6478 80° East 130 150 700  Level Houston Center
02:56PM 26.2217 -97.6058 80° East 178 205 2,100 1,860 Climbing Houston Center
02:58PM 26.2614 -97.5547 49° Northeast 227 261 4,200 2,280 Climbing Houston Center
02:59PM 26.3472 -97.5458 North 287 330 6,900 3,000 Climbing Houston Center
03:00PM 26.4294 -97.5381 North 295 339 10,500 2,760 Climbing Houston Center
03:01PM 26.5267 -97.5292 North 333 383 12,700 2,640 Climbing Houston Center
03:02PM 26.6258 -97.5181 North 356 410 16,000 2,880 Climbing Houston Center
03:03PM 26.7292 -97.5050 North 372 428 18,800 2,700 Climbing Houston Center
03:04PM 26.8475 -97.4969 North 396 456 21,600 2,460 Climbing Houston Center
03:05PM 26.9572 -97.4922 North 399 459 24,000 2,280 Climbing Houston Center
03:06PM 27.0847 -97.4936 359° North 428 493 26,400 1,920 Climbing Houston Center
03:07PM 27.1806 -97.5328 340° North 409 471 28,000 1,860 Climbing Houston Center
03:08PM 27.3219 -97.5831 342° North 440 506 30,300 2,220 Climbing Houston Center
03:09PM 27.4378 -97.6264 342° North 440 506 32,700 1,920 Climbing Houston Center
03:10PM 27.5536 -97.6686 342° North 438 504 34,400 1,560 Climbing Houston Center
03:11PM 27.6681 -97.7117 342° North 436 502 36,000 720 Climbing Houston Center
03:12PM 27.7819 -97.7539 342° North 433 498 36,000  Level Houston Center
03:13PM 27.9183 -97.8039 342° North 432 497 36,000  Level Houston Center
03:14PM 28.0325 -97.8469 342° North 432 497 36,000  Level Houston Center
03:15PM 28.1469 -97.8897 342° North 434 499 36,000  Level Houston Center
03:16PM 28.2736 -97.9372 342° North 434 499 36,000  Level Houston Center
03:17PM 28.3878 -97.9803 342° North 432 497 36,000  Level Houston Center
03:18PM 28.5025 -98.0242 341° North 433 498 36,000  Level Houston Center
03:19PM 28.6161 -98.0675 341° North 431 496 36,000  Level Houston Center
03:20PM 28.7511 -98.1183 342° North 434 499 36,000 -300 Level Houston Center
03:21PM 28.8636 -98.1619 341° North 428 493 35,500 -780 Descending Houston Center
03:22PM 28.9844 -98.2078 342° North 425 489 34,400 -1,020 Descending Houston Center
03:23PM 29.0969 -98.2517 341° North 426 490 33,400 -1,020 Descending Houston Center
03:24PM 29.2186 -98.2975 342° North 427 491 32,400 -1,020 Descending Houston Center
03:25PM 29.3319 -98.3403 342° North 428 493 31,300 -1,800 Descending Houston Center
03:27PM 29.4519 -98.3864 342° North 423 487 28,700 -2,160 Descending Houston Center
03:28PM 29.5419 -98.4211 341° North 418 481 26,800 -2,220 Descending Houston Center
03:29PM 29.6739 -98.4397 353° North 401 461 24,200 -2,340 Descending Houston Center
03:30PM 29.7697 -98.3717 32° Northeast 402 463 22,000 -2,220 Descending Houston Center
03:31PM 29.8689 -98.3000 32° Northeast 391 450 19,700 -2,100 Descending Houston Center
03:32PM 29.9569 -98.2358 32° Northeast 377 434 17,700 -2,040 Descending Houston Center
03:33PM 30.0494 -98.1694 32° Northeast 364 419 15,600 -1,800 Descending Houston Center
03:34PM 30.1250 -98.1006 38° Northeast 349 402 14,000 -2,100 Descending Houston Center
03:35PM 30.1722 -97.9939 63° Northeast 345 397 11,300 -1,920 Descending Houston Center
03:36PM 30.2119 -97.9017 63° Northeast 313 360 10,000 -1,500 Descending Houston Center
03:37PM 30.2728 -97.8511 36° Northeast 292 336 8,200 -1,800 Descending Houston Center
03:38PM 30.3486 -97.8175 21° North 290 334 6,400 -2,340 Descending Houston Center
03:39PM 30.4003 -97.7586 45° Northeast 284 327 3,400 -1,680 Descending Houston Center
03:40PM 30.3714 -97.6942 117° Southeast 233 268 3,000 -420 Descending Houston Center
03:41PM 30.3219 -97.6797 166° South 200 230 2,600 -660 Descending Houston Center
03:42PM 30.2733 -97.6817 182° South 180 207 1,700 -720 Descending Houston Center
03:43PM 30.2269 -97.6794 178° South 164 189 1,100 -600 Descending Houston Center
03:45PM 30.1945 -97.6699 221° Southwest  Level Estimated
03:52PM 30.1945 -97.6699 221° Southwest  Level Estimated
03:53PM 30.1945 -97.6699 221° Southwest  Level Estimated